Time,TemperatureF,DewpointF,PressureIn,WindDirection,WindDirectionDegrees,WindSpeedMPH,WindSpeedGustMPH,Humidity,HourlyPrecipIn,Conditions,Clouds,dailyrainin,SolarRadiationWatts/m^2,SoftwareType,DateUTC
2013-09-18 00:22:00,83.0,44.0,-100.00,SSW,200,6.0,11.0,25,0.00,,,0.00,85.000000,,2013-09-18 00:22:00,
2013-09-18 00:32:00,83.0,44.0,-100.00,SSW,200,6.0,11.0,25,0.00,,,0.00,85.000000,,2013-09-18 00:32:00,
2013-09-18 00:42:00,83.0,44.0,-100.00,SSW,200,6.0,11.0,25,0.00,,,0.00,85.000000,,2013-09-18 00:42:00,
2013-09-18 00:52:00,83.0,44.0,-100.00,SSW,200,6.0,11.0,25,0.00,,,0.00,85.000000,,2013-09-18 00:52:00,
2013-09-18 01:22:00,80.0,43.0,-100.00,SSE,157,2.0,12.0,27,0.00,,,0.00,27.000000,,2013-09-18 01:22:00,
2013-09-18 01:32:00,80.0,43.0,-100.00,SSE,157,2.0,12.0,27,0.00,,,0.00,27.000000,,2013-09-18 01:32:00,
2013-09-18 01:42:00,80.0,43.0,-100.00,SSE,157,2.0,12.0,27,0.00,,,0.00,27.000000,,2013-09-18 01:42:00,
2013-09-18 01:52:00,80.0,43.0,-100.00,SSE,157,2.0,12.0,27,0.00,,,0.00,27.000000,,2013-09-18 01:52:00,
2013-09-18 02:22:00,78.0,42.0,-100.00,SSW,200,4.0,7.0,28,-99.99,,,0.00,1.000000,,2013-09-18 02:22:00,
2013-09-18 02:32:00,78.0,42.0,-100.00,SSW,200,4.0,7.0,28,-99.99,,,0.00,1.000000,,2013-09-18 02:32:00,
2013-09-18 02:43:00,78.0,42.0,-100.00,SSW,200,4.0,7.0,28,-99.99,,,0.00,1.000000,,2013-09-18 02:43:00,
2013-09-18 02:52:00,78.0,42.0,-100.00,SSW,200,4.0,7.0,28,-99.99,,,0.00,1.000000,,2013-09-18 02:52:00,
2013-09-18 03:23:00,78.0,42.0,-100.00,South,189,6.0,11.0,28,-99.99,,,0.00,0.000000,,2013-09-18 03:23:00,
2013-09-18 03:35:00,78.0,42.0,-100.00,South,189,6.0,11.0,28,-99.99,,,0.00,0.000000,,2013-09-18 03:35:00,
2013-09-18 04:24:00,75.0,44.0,-100.00,SW,216,5.0,10.0,33,-99.99,,,0.00,0.000000,,2013-09-18 04:24:00,
2013-09-18 04:34:00,75.0,44.0,-100.00,SW,216,5.0,10.0,33,-99.99,,,0.00,0.000000,,2013-09-18 04:34:00,
2013-09-18 04:44:00,75.0,44.0,-100.00,SW,216,5.0,10.0,33,-99.99,,,0.00,0.000000,,2013-09-18 04:44:00,
2013-09-18 04:54:00,75.0,44.0,-100.00,SW,216,5.0,10.0,33,-99.99,,,0.00,0.000000,,2013-09-18 04:54:00,
2013-09-18 05:23:00,73.0,44.0,-100.00,SW,217,5.0,14.0,36,0.00,,,0.00,0.000000,,2013-09-18 05:23:00,
2013-09-18 05:33:00,73.0,44.0,-100.00,SW,217,5.0,14.0,36,0.00,,,0.00,0.000000,,2013-09-18 05:33:00,
2013-09-18 05:43:00,73.0,44.0,-100.00,SW,217,5.0,14.0,36,0.00,,,0.00,0.000000,,2013-09-18 05:43:00,
2013-09-18 05:52:00,73.0,44.0,-100.00,SW,217,5.0,14.0,36,0.00,,,0.00,0.000000,,2013-09-18 05:52:00,
2013-09-18 06:22:00,72.0,43.0,-100.00,SSW,208,3.0,10.0,35,0.00,,,0.00,0.000000,,2013-09-18 06:22:00,
2013-09-18 06:33:00,72.0,43.0,-100.00,SSW,208,3.0,10.0,35,0.00,,,0.00,0.000000,,2013-09-18 06:33:00,
2013-09-18 09:43:00,67.0,43.0,-100.00,West,276,3.0,7.0,42,-99.99,,,0.00,0.000000,,2013-09-18 09:43:00,
2013-09-18 10:23:00,66.0,44.0,-100.00,SW,217,2.0,9.0,45,-99.99,,,0.00,0.000000,,2013-09-18 10:23:00,
2013-09-18 10:33:00,66.0,44.0,-100.00,SW,217,2.0,9.0,45,-99.99,,,0.00,0.000000,,2013-09-18 10:33:00,
2013-09-18 12:22:00,60.0,46.0,-100.00,NNW,345,3.0,9.0,59,0.00,,,0.00,0.000000,,2013-09-18 12:22:00,
2013-09-18 12:32:00,60.0,46.0,-100.00,NNW,345,3.0,9.0,59,0.00,,,0.00,0.000000,,2013-09-18 12:32:00,
2013-09-18 12:42:00,60.0,46.0,-100.00,NNW,345,3.0,9.0,59,0.00,,,0.00,0.000000,,2013-09-18 12:42:00,
2013-09-18 12:52:00,60.0,46.0,-100.00,NNW,345,3.0,9.0,59,0.00,,,0.00,0.000000,,2013-09-18 12:52:00,